Time;durP1;ratioP1;P1;durP2;ratioP2;P2;SDS_P1;SDS_P2;PMS_P1;PMS_P2;Temp;Humidity;BMP_temperature;BMP_pressure;BME280_temperature;BME280_humidity;BME280_pressure;Samples;Min_cycle;Max_cycle;Signal;HPM_P1;HPM_P2
2021/04/19 00:00:18;;;;;;;45.73;26.63;;;8.80;99.90;;;;;;4971952;28;20192;-77
2021/04/19 00:02:44;;;;;;;53.07;29.33;;;8.80;99.90;;;;;;4971847;28;20223;-76
2021/04/19 00:05:14;;;;;;;45.63;26.80;;;8.90;99.90;;;;;;4973053;28;21677;-76
2021/04/19 00:07:40;;;;;;;51.47;28.50;;;8.80;99.90;;;;;;4971865;28;20197;-76
2021/04/19 00:10:07;;;;;;;48.10;29.23;;;8.60;99.90;;;;;;4971143;28;20193;-76
2021/04/19 00:12:33;;;;;;;53.10;29.17;;;8.60;99.90;;;;;;4984829;28;20196;-76
2021/04/19 00:14:59;;;;;;;52.47;28.70;;;8.60;99.90;;;;;;4971528;28;20220;-75
2021/04/19 00:17:25;;;;;;;46.90;27.83;;;8.60;99.90;;;;;;4971408;28;20710;-76
2021/04/19 00:19:50;;;;;;;52.43;29.77;;;8.60;99.90;;;;;;5004214;28;20229;-76
2021/04/19 00:22:16;;;;;;;50.10;29.47;;;8.60;99.90;;;;;;4970481;28;20231;-75
2021/04/19 00:24:42;;;;;;;55.47;29.97;;;8.60;99.90;;;;;;4983458;28;20181;-76
2021/04/19 00:27:07;;;;;;;50.00;28.23;;;8.60;99.90;;;;;;4970965;28;20711;-75
2021/04/19 00:29:33;;;;;;;55.97;29.50;;;8.60;99.90;;;;;;4971450;28;20998;-75
2021/04/19 00:31:59;;;;;;;58.57;29.73;;;8.70;99.90;;;;;;4970669;28;20682;-76
2021/04/19 00:34:24;;;;;;;57.00;30.23;;;8.70;99.90;;;;;;4969454;28;20359;-76
2021/04/19 00:36:50;;;;;;;53.93;29.33;;;8.60;99.90;;;;;;5003937;28;20214;-76
2021/04/19 00:39:16;;;;;;;49.67;28.20;;;8.60;99.90;;;;;;4970645;28;20676;-76
2021/04/19 00:41:43;;;;;;;50.40;28.03;;;8.50;99.90;;;;;;4970110;28;20188;-76
2021/04/19 00:44:09;;;;;;;51.33;28.93;;;8.40;99.90;;;;;;4970056;28;20188;-76
2021/04/19 00:46:35;;;;;;;50.07;29.37;;;8.40;99.90;;;;;;4969504;28;20200;-76
2021/04/19 00:49:01;;;;;;;48.40;27.63;;;8.40;99.90;;;;;;4971235;28;20205;-76
2021/04/19 00:51:27;;;;;;;56.10;30.87;;;8.50;99.90;;;;;;4970201;28;20911;-76
2021/04/19 00:53:53;;;;;;;56.83;29.83;;;8.40;99.90;;;;;;4972079;28;20210;-77
2021/04/19 00:56:20;;;;;;;49.00;29.93;;;8.40;99.90;;;;;;4972121;28;20188;-76
2021/04/19 00:58:46;;;;;;;54.00;29.20;;;8.40;99.90;;;;;;4969852;28;20657;-76
2021/04/19 01:01:12;;;;;;;57.73;31.07;;;8.40;99.90;;;;;;4968522;28;20279;-77
2021/04/19 01:03:39;;;;;;;55.77;30.67;;;8.40;99.90;;;;;;4970066;28;20307;-76
2021/04/19 01:06:05;;;;;;;53.20;28.87;;;8.40;99.90;;;;;;4971616;28;20660;-76
2021/04/19 01:08:33;;;;;;;58.33;30.77;;;8.40;99.90;;;;;;4984935;28;20299;-76
2021/04/19 01:11:00;;;;;;;69.13;31.63;;;8.30;99.90;;;;;;4969053;28;20175;-76
2021/04/19 01:13:26;;;;;;;59.67;32.53;;;8.30;99.90;;;;;;4970519;28;20201;-76
2021/04/19 01:15:52;;;;;;;61.00;32.03;;;8.30;99.90;;;;;;4970480;28;20272;-76
2021/04/19 01:18:18;;;;;;;62.87;32.43;;;8.40;99.90;;;;;;4971314;28;20195;-76
2021/04/19 01:20:46;;;;;;;58.80;30.77;;;8.40;99.90;;;;;;4971341;28;20189;-76
2021/04/19 01:23:13;;;;;;;59.63;31.13;;;8.30;99.90;;;;;;4971668;28;20660;-77
2021/04/19 01:25:39;;;;;;;57.07;31.13;;;8.30;99.90;;;;;;4969700;28;20189;-76
2021/04/19 01:28:08;;;;;;;57.23;30.50;;;8.30;99.90;;;;;;4969730;28;20571;-76
2021/04/19 01:30:37;;;;;;;53.87;30.43;;;8.30;99.90;;;;;;4971076;28;20180;-76
2021/04/19 01:33:04;;;;;;;55.10;29.47;;;8.30;99.90;;;;;;5002344;28;20284;-76
2021/04/19 01:35:31;;;;;;;59.13;30.77;;;8.40;99.90;;;;;;4970042;28;20617;-76
2021/04/19 01:37:57;;;;;;;62.10;31.17;;;8.40;99.90;;;;;;5002626;28;20200;-76
2021/04/19 01:40:24;;;;;;;59.10;32.57;;;8.40;99.90;;;;;;4968921;28;20285;-77
2021/04/19 01:42:50;;;;;;;64.43;32.07;;;8.30;99.90;;;;;;4968212;28;20211;-76
2021/04/19 01:45:18;;;;;;;61.10;33.87;;;8.20;99.90;;;;;;4969631;28;20200;-76
2021/04/19 01:47:45;;;;;;;58.90;34.17;;;8.20;99.90;;;;;;4968712;28;20183;-76
2021/04/19 01:50:15;;;;;;;59.83;32.27;;;8.20;99.90;;;;;;5002301;28;20208;-76
2021/04/19 01:52:41;;;;;;;64.53;33.47;;;8.10;99.90;;;;;;4970204;28;20232;-76
2021/04/19 01:55:11;;;;;;;55.57;31.23;;;8.20;99.90;;;;;;4970291;28;20677;-76
2021/04/19 01:57:42;;;;;;;56.27;29.43;;;8.20;99.90;;;;;;4969009;28;20196;-76
2021/04/19 02:00:10;;;;;;;51.90;29.00;;;8.10;99.90;;;;;;5001172;28;20184;-76
2021/04/19 02:03:02;;;;;;;52.43;30.43;;;8.00;99.90;;;;;;4970793;28;20186;-77
2021/04/19 02:05:47;;;;;;;56.23;30.00;;;7.90;99.90;;;;;;4970346;28;20176;-76
2021/04/19 02:08:27;;;;;;;57.40;32.00;;;7.90;99.90;;;;;;4970195;28;20208;-76
2021/04/19 02:11:13;;;;;;;68.50;32.50;;;7.90;99.90;;;;;;4984749;28;20181;-77
2021/04/19 02:13:53;;;;;;;65.20;34.27;;;7.90;99.90;;;;;;4968199;28;20317;-76
2021/04/19 02:16:32;;;;;;;59.07;32.23;;;7.90;99.90;;;;;;5001937;28;20675;-77
2021/04/19 02:19:20;;;;;;;61.97;32.53;;;7.80;99.90;;;;;;4985792;28;20183;-76
2021/04/19 02:21:59;;;;;;;58.87;32.27;;;7.70;99.90;;;;;;4972710;28;20195;-77
2021/04/19 02:24:29;;;;;;;61.27;34.40;;;7.70;99.90;;;;;;4988909;28;20195;-77
2021/04/19 02:26:59;;;;;;;66.07;34.33;;;7.60;99.90;;;;;;4976143;28;20188;-77
2021/04/19 02:29:34;;;;;;;65.30;33.97;;;7.60;99.90;;;;;;4975273;28;20697;-77
2021/04/19 02:32:05;;;;;;;63.33;35.40;;;7.60;99.90;;;;;;4986922;28;20274;-76
2021/04/19 02:34:39;;;;;;;62.73;34.53;;;7.70;99.90;;;;;;4973526;28;20249;-76
2021/04/19 02:37:08;;;;;;;68.47;36.20;;;7.70;99.90;;;;;;4988261;28;20525;-76
2021/04/19 02:39:38;;;;;;;61.30;33.67;;;7.70;99.90;;;;;;5004440;28;20239;-77
2021/04/19 02:42:05;;;;;;;64.03;32.90;;;7.60;99.90;;;;;;4973072;28;20192;-76
2021/04/19 02:44:33;;;;;;;59.40;32.40;;;7.60;99.90;;;;;;4988074;28;20283;-76
2021/04/19 02:47:26;;;;;;;61.77;32.20;;;7.60;99.90;;;;;;4972656;28;20729;-76
2021/04/19 02:50:20;;;;;;;64.67;35.30;;;7.60;99.90;;;;;;4971911;28;20191;-76
2021/04/19 02:52:48;;;;;;;71.53;36.00;;;7.60;99.90;;;;;;5005456;28;20199;-76
2021/04/19 02:55:19;;;;;;;66.40;37.27;;;7.60;99.90;;;;;;4973087;28;20187;-76
2021/04/19 02:57:56;;;;;;;65.27;35.57;;;7.70;99.90;;;;;;4989348;28;20187;-77
2021/04/19 03:00:27;;;;;;;68.77;36.93;;;7.70;99.90;;;;;;4985911;28;20194;-76
2021/04/19 03:02:57;;;;;;;77.90;38.47;;;7.80;99.90;;;;;;4970562;28;20192;-77
2021/04/19 03:05:26;;;;;;;69.13;38.23;;;7.80;99.90;;;;;;5005021;28;20182;-76
2021/04/19 03:07:58;;;;;;;66.33;36.60;;;7.90;99.90;;;;;;4971985;28;20209;-76
2021/04/19 03:10:27;;;;;;;60.47;34.23;;;8.00;99.90;;;;;;4990643;28;20184;-77
2021/04/19 03:12:56;;;;;;;58.53;34.30;;;8.00;99.90;;;;;;4972631;28;20246;-77
2021/04/19 03:15:30;;;;;;;61.63;34.47;;;8.10;99.90;;;;;;5004397;28;20180;-77
2021/04/19 03:18:12;;;;;;;67.63;35.80;;;8.20;99.90;;;;;;4986304;28;20189;-77
2021/04/19 03:21:14;;;;;;;61.27;35.67;;;8.30;99.90;;;;;;4972126;28;20187;-77
2021/04/19 03:24:01;;;;;;;63.20;34.27;;;8.30;99.90;;;;;;5003183;28;20218;-76
2021/04/19 03:26:53;;;;;;;69.20;37.53;;;8.40;99.90;;;;;;4983394;28;20205;-76
2021/04/19 03:29:23;;;;;;;72.63;38.27;;;8.50;99.90;;;;;;4972339;28;20220;-77
2021/04/19 03:32:04;;;;;;;62.03;35.70;;;8.50;99.90;;;;;;4968952;28;20188;-76
2021/04/19 03:34:34;;;;;;;65.57;36.23;;;8.50;99.90;;;;;;5003437;28;20232;-77
2021/04/19 03:37:04;;;;;;;76.83;37.97;;;8.50;99.90;;;;;;4986647;28;20328;-77
2021/04/19 03:39:35;;;;;;;72.83;38.73;;;8.60;99.90;;;;;;5003753;28;20274;-77
2021/04/19 03:42:02;;;;;;;73.80;37.30;;;8.60;99.90;;;;;;5002772;28;20670;-76
2021/04/19 03:44:37;;;;;;;76.53;38.97;;;8.70;99.90;;;;;;4970836;28;20205;-77
2021/04/19 03:47:04;;;;;;;88.60;40.43;;;8.80;99.90;;;;;;5003982;28;20596;-76
2021/04/19 03:49:47;;;;;;;83.70;40.33;;;8.90;99.90;;;;;;4987048;28;20243;-77
2021/04/19 03:52:23;;;;;;;93.40;41.23;;;8.90;99.90;;;;;;5003266;28;20182;-76
2021/04/19 03:54:51;;;;;;;83.57;40.07;;;8.90;99.90;;;;;;4972091;28;20680;-76
2021/04/19 03:57:23;;;;;;;85.30;40.83;;;8.90;99.90;;;;;;4972108;28;20212;-76
2021/04/19 04:00:03;;;;;;;98.37;40.67;;;8.90;99.90;;;;;;4969949;28;20196;-76
2021/04/19 04:02:53;;;;;;;106.47;42.20;;;8.90;99.90;;;;;;4973948;28;20225;-76
2021/04/19 04:05:37;;;;;;;90.63;41.93;;;9.00;99.90;;;;;;4972167;28;20552;-77
2021/04/19 04:08:29;;;;;;;102.40;41.53;;;9.00;99.90;;;;;;4984576;28;20204;-77
2021/04/19 04:10:56;;;;;;;95.90;41.23;;;9.00;99.90;;;;;;4971555;28;20239;-77
2021/04/19 04:13:26;;;;;;;87.60;40.47;;;9.00;99.90;;;;;;4970723;28;20192;-76
2021/04/19 04:15:57;;;;;;;94.83;42.67;;;8.80;99.90;;;;;;4988484;28;20177;-77
2021/04/19 04:18:25;;;;;;;93.33;42.20;;;8.60;99.90;;;;;;4970799;28;20194;-76
2021/04/19 04:20:52;;;;;;;97.87;42.77;;;8.60;99.90;;;;;;4983951;28;20199;-76
2021/04/19 04:23:23;;;;;;;104.40;41.33;;;8.60;99.90;;;;;;5001812;28;20199;-76
2021/04/19 04:25:50;;;;;;;99.40;42.23;;;8.60;99.90;;;;;;4986758;28;20191;-75
2021/04/19 04:28:19;;;;;;;100.10;41.40;;;8.60;99.90;;;;;;4987537;28;20205;-77
2021/04/19 04:31:13;;;;;;;110.30;41.20;;;8.50;99.90;;;;;;4973324;28;20713;-76
2021/04/19 04:33:45;;;;;;;94.40;40.70;;;8.50;99.90;;;;;;4987358;28;20695;-75
2021/04/19 04:36:17;;;;;;;103.17;42.63;;;8.60;99.90;;;;;;4968881;28;20180;-77
2021/04/19 04:38:46;;;;;;;114.03;41.40;;;8.50;99.90;;;;;;4970793;28;20187;-76
2021/04/19 04:41:23;;;;;;;111.37;40.83;;;8.30;99.90;;;;;;5002109;28;20192;-76
2021/04/19 04:43:53;;;;;;;103.53;41.87;;;8.20;99.90;;;;;;4971942;28;20195;-76
2021/04/19 04:46:29;;;;;;;110.17;41.13;;;8.20;99.90;;;;;;4970792;28;20235;-76
2021/04/19 04:49:03;;;;;;;98.00;39.17;;;8.20;99.90;;;;;;5001385;28;20211;-76
2021/04/19 04:51:31;;;;;;;102.77;41.23;;;8.20;99.90;;;;;;4972634;28;20199;-76
2021/04/19 04:54:09;;;;;;;118.37;43.17;;;8.40;99.90;;;;;;4985102;28;20643;-76
2021/04/19 04:56:39;;;;;;;126.67;40.80;;;8.40;99.90;;;;;;4970624;28;20277;-76
2021/04/19 04:59:05;;;;;;;94.70;36.40;;;8.50;99.90;;;;;;4970564;28;20195;-76
2021/04/19 05:01:33;;;;;;;111.30;37.10;;;8.40;99.90;;;;;;4971613;28;20204;-76
2021/04/19 05:04:00;;;;;;;106.67;37.10;;;8.30;99.90;;;;;;4970870;28;20215;-76
2021/04/19 05:06:27;;;;;;;113.03;38.10;;;8.20;99.90;;;;;;4970912;28;20205;-76
2021/04/19 05:08:53;;;;;;;123.27;39.97;;;8.20;99.90;;;;;;4972521;28;20207;-76
2021/04/19 05:11:19;;;;;;;107.30;35.43;;;8.20;99.90;;;;;;4970791;28;20192;-76
2021/04/19 05:13:45;;;;;;;133.37;38.57;;;8.30;99.90;;;;;;4986163;28;20227;-77
2021/04/19 05:16:11;;;;;;;112.97;35.80;;;8.40;99.90;;;;;;5000829;28;20195;-76
2021/04/19 05:18:36;;;;;;;104.03;36.73;;;8.50;99.90;;;;;;4971636;28;20184;-76
2021/04/19 05:21:02;;;;;;;105.33;37.87;;;8.40;99.90;;;;;;4970695;28;20187;-76
2021/04/19 05:23:28;;;;;;;104.80;36.57;;;8.50;99.90;;;;;;4969986;28;20660;-76
2021/04/19 05:25:55;;;;;;;97.37;35.40;;;8.50;99.90;;;;;;4971114;28;20251;-76
2021/04/19 05:28:21;;;;;;;94.07;37.17;;;8.50;99.90;;;;;;4970433;28;20270;-75
2021/04/19 05:30:50;;;;;;;117.30;36.00;;;8.40;99.90;;;;;;4970983;28;20191;-76
2021/04/19 05:33:17;;;;;;;100.90;34.67;;;8.50;99.90;;;;;;4967477;28;20181;-76
2021/04/19 05:35:43;;;;;;;101.97;34.77;;;8.60;99.90;;;;;;4969498;28;20300;-76
2021/04/19 05:38:09;;;;;;;97.77;35.70;;;8.70;99.90;;;;;;4968863;28;20273;-76
2021/04/19 05:40:36;;;;;;;96.53;34.27;;;8.80;99.90;;;;;;4969179;28;20209;-76
2021/04/19 05:43:05;;;;;;;82.17;33.30;;;8.90;99.90;;;;;;4969424;28;20260;-76
2021/04/19 05:45:33;;;;;;;92.30;34.67;;;8.80;99.90;;;;;;4980487;28;20569;-77
2021/04/19 05:48:00;;;;;;;96.37;34.13;;;8.90;99.90;;;;;;4969525;28;20212;-76
2021/04/19 05:50:26;;;;;;;116.30;35.10;;;8.90;99.90;;;;;;4969139;28;20194;-77
2021/04/19 05:52:54;;;;;;;101.03;35.37;;;9.00;99.90;;;;;;4969486;28;20222;-76
2021/04/19 05:55:23;;;;;;;100.77;36.60;;;9.00;99.90;;;;;;4971833;28;20744;-77
2021/04/19 05:58:01;;;;;;;102.53;35.70;;;9.00;99.90;;;;;;4971320;28;20188;-76
2021/04/19 06:00:39;;;;;;;93.03;35.20;;;9.10;99.90;;;;;;4971880;28;20178;-76
2021/04/19 06:03:21;;;;;;;92.40;35.53;;;9.10;99.90;;;;;;4972913;28;20176;-76
2021/04/19 06:06:15;;;;;;;97.37;35.13;;;9.10;99.90;;;;;;4973361;28;20180;-76
2021/04/19 06:08:47;;;;;;;94.37;34.77;;;9.10;99.90;;;;;;4971998;28;20213;-76
2021/04/19 06:11:29;;;;;;;87.10;35.63;;;9.20;99.90;;;;;;5005602;28;20603;-76
2021/04/19 06:14:03;;;;;;;91.03;34.50;;;9.30;99.90;;;;;;4987073;28;20232;-76
2021/04/19 06:16:36;;;;;;;90.50;36.40;;;9.40;99.90;;;;;;5004516;28;20659;-76
2021/04/19 06:19:03;;;;;;;89.37;35.37;;;9.40;99.90;;;;;;4967972;28;20193;-76
2021/04/19 06:21:30;;;;;;;93.50;35.77;;;9.50;99.90;;;;;;4972794;28;20197;-76
2021/04/19 06:23:56;;;;;;;81.53;35.13;;;9.50;99.90;;;;;;4972931;28;20272;-75
2021/04/19 06:26:21;;;;;;;80.13;34.07;;;9.60;99.90;;;;;;4973269;28;20292;-76
2021/04/19 06:28:49;;;;;;;80.43;33.67;;;9.70;99.90;;;;;;4973816;28;20286;-76
2021/04/19 06:31:17;;;;;;;79.60;32.90;;;9.40;99.90;;;;;;4972298;28;20844;-75
2021/04/19 06:33:57;;;;;;;81.03;33.33;;;9.50;99.90;;;;;;4973821;28;20692;-75
2021/04/19 06:36:23;;;;;;;79.40;33.43;;;9.50;99.90;;;;;;5001306;28;20186;-76
2021/04/19 06:38:48;;;;;;;80.00;33.63;;;9.50;99.90;;;;;;4970922;28;20320;-75
2021/04/19 06:41:15;;;;;;;83.50;33.47;;;9.50;99.90;;;;;;4973985;28;20572;-75
2021/04/19 06:43:40;;;;;;;81.03;33.67;;;9.60;99.90;;;;;;4983929;28;20190;-76
2021/04/19 06:46:06;;;;;;;80.90;35.03;;;9.70;99.90;;;;;;4973531;28;20651;-75
2021/04/19 06:48:32;;;;;;;85.07;34.70;;;9.90;99.90;;;;;;4971546;28;20209;-76
2021/04/19 06:50:59;;;;;;;78.47;33.03;;;10.00;99.90;;;;;;4972452;28;20205;-76
2021/04/19 06:53:24;;;;;;;87.30;35.93;;;10.20;99.90;;;;;;4972630;28;20195;-76
2021/04/19 06:55:53;;;;;;;71.50;32.23;;;10.30;99.90;;;;;;4971461;28;20197;-76
2021/04/19 06:58:20;;;;;;;84.00;35.63;;;10.40;99.90;;;;;;4972772;28;20186;-76
2021/04/19 07:00:48;;;;;;;76.60;33.57;;;10.50;99.90;;;;;;4970003;28;20197;-76
2021/04/19 07:03:21;;;;;;;73.53;33.07;;;10.60;99.90;;;;;;4972343;28;20186;-76
2021/04/19 07:05:50;;;;;;;76.33;32.57;;;10.80;99.90;;;;;;4971504;28;20187;-77
2021/04/19 07:08:24;;;;;;;70.73;33.73;;;10.90;99.90;;;;;;4973420;28;20710;-77
2021/04/19 07:11:01;;;;;;;71.13;32.60;;;11.00;99.90;;;;;;4972084;28;20186;-77
2021/04/19 07:13:29;;;;;;;72.00;34.30;;;11.00;99.90;;;;;;4972421;28;20670;-76
2021/04/19 07:15:55;;;;;;;76.93;35.20;;;11.10;99.90;;;;;;4972735;28;20194;-77
2021/04/19 07:18:21;;;;;;;79.03;35.83;;;11.00;99.90;;;;;;4971874;28;20196;-77
2021/04/19 07:20:47;;;;;;;77.27;36.90;;;11.10;99.90;;;;;;4973388;28;20206;-75
2021/04/19 07:23:14;;;;;;;76.30;35.47;;;11.10;99.90;;;;;;4970633;28;20194;-76
2021/04/19 07:25:41;;;;;;;81.00;38.33;;;11.30;99.90;;;;;;4973010;28;20190;-77
2021/04/19 07:28:07;;;;;;;77.87;37.20;;;11.40;99.90;;;;;;4972079;28;20207;-76
2021/04/19 07:30:33;;;;;;;86.73;38.83;;;11.50;99.90;;;;;;4984569;28;20275;-76
2021/04/19 07:33:00;;;;;;;80.90;39.03;;;11.70;99.90;;;;;;4971361;28;20241;-76
2021/04/19 07:35:29;;;;;;;86.47;40.27;;;11.90;99.90;;;;;;4971120;28;20258;-75
2021/04/19 07:37:59;;;;;;;85.90;39.90;;;11.90;99.90;;;;;;4974507;28;20229;-76
2021/04/19 07:40:31;;;;;;;82.33;38.97;;;12.20;99.90;;;;;;4971295;28;20203;-76
2021/04/19 07:43:27;;;;;;;77.17;37.93;;;12.30;99.90;;;;;;4971142;28;20184;-76
2021/04/19 07:46:01;;;;;;;80.23;38.43;;;12.70;99.90;;;;;;4967612;28;20290;-77
2021/04/19 07:48:37;;;;;;;79.60;39.07;;;12.80;99.90;;;;;;4973549;28;20206;-78
2021/04/19 07:51:23;;;;;;;83.20;38.83;;;12.60;99.90;;;;;;4964019;28;20194;-77
2021/04/19 07:53:50;;;;;;;91.80;42.50;;;12.70;99.90;;;;;;4981574;28;20278;-76
2021/04/19 07:56:17;;;;;;;83.80;40.97;;;12.70;99.90;;;;;;4970057;28;20641;-76
2021/04/19 07:58:43;;;;;;;85.00;41.47;;;12.90;99.90;;;;;;4969733;28;20556;-75
2021/04/19 08:01:09;;;;;;;83.30;42.30;;;13.20;99.90;;;;;;4991504;28;20184;-78
2021/04/19 08:03:38;;;;;;;90.80;44.03;;;13.10;99.90;;;;;;4985228;28;20179;-76
2021/04/19 08:06:20;;;;;;;92.47;43.87;;;13.00;99.90;;;;;;4971080;28;20188;-77
2021/04/19 08:08:45;;;;;;;77.77;40.43;;;14.20;99.90;;;;;;4971204;28;20706;-76
2021/04/19 08:11:16;;;;;;;76.87;40.33;;;16.00;99.90;;;;;;4970809;28;20280;-76
2021/04/19 08:13:44;;;;;;;75.57;40.13;;;17.00;99.90;;;;;;4971692;28;20184;-76
2021/04/19 08:16:24;;;;;;;72.83;40.20;;;18.20;99.90;;;;;;4970573;28;20321;-77
2021/04/19 08:18:50;;;;;;;69.40;39.20;;;19.10;99.90;;;;;;4970198;28;20553;-75
2021/04/19 08:21:30;;;;;;;68.93;38.83;;;18.70;99.90;;;;;;4968563;28;20194;-76
2021/04/19 08:24:13;;;;;;;73.67;40.63;;;19.10;99.90;;;;;;4970963;28;20178;-76
2021/04/19 08:26:49;;;;;;;68.67;38.33;;;18.50;99.90;;;;;;4969945;28;20549;-77
2021/04/19 08:29:48;;;;;;;60.90;36.70;;;18.10;99.90;;;;;;4970795;28;21014;-75
2021/04/19 08:32:16;;;;;;;63.70;36.87;;;20.50;99.90;;;;;;4983808;28;20189;-76
2021/04/19 08:34:43;;;;;;;58.80;35.67;;;22.50;98.60;;;;;;4986125;28;20257;-75
2021/04/19 08:37:11;;;;;;;52.33;33.13;;;23.40;95.40;;;;;;4968629;28;20196;-77
2021/04/19 08:39:39;;;;;;;54.23;34.03;;;24.20;92.20;;;;;;4970756;28;20277;-77
2021/04/19 08:42:05;;;;;;;54.60;34.63;;;24.50;90.40;;;;;;4972134;28;20263;-75
2021/04/19 08:44:33;;;;;;;53.27;34.43;;;24.40;86.60;;;;;;4969518;28;20667;-76
2021/04/19 08:47:00;;;;;;;48.53;32.93;;;25.10;85.70;;;;;;4971565;28;20194;-76
2021/04/19 08:49:27;;;;;;;46.77;31.13;;;24.10;83.70;;;;;;4970690;28;20217;-76
2021/04/19 08:51:53;;;;;;;48.30;29.83;;;24.10;83.90;;;;;;4970692;28;20208;-76
2021/04/19 08:54:21;;;;;;;48.57;31.73;;;24.10;82.50;;;;;;4971416;28;20222;-76
2021/04/19 08:56:47;;;;;;;53.57;31.77;;;24.00;81.40;;;;;;4970185;28;20614;-75
2021/04/19 08:59:14;;;;;;;46.77;29.90;;;23.70;83.00;;;;;;5002381;28;20282;-75
2021/04/19 09:01:41;;;;;;;45.63;29.87;;;25.20;80.00;;;;;;4969654;28;20667;-75
2021/04/19 09:04:08;;;;;;;42.47;28.27;;;25.60;77.80;;;;;;4970257;28;20184;-76
2021/04/19 09:06:41;;;;;;;42.63;28.00;;;27.10;73.80;;;;;;4970251;28;20270;-76
2021/04/19 09:09:11;;;;;;;40.90;28.67;;;27.80;69.30;;;;;;4968488;28;20565;-76
2021/04/19 09:11:37;;;;;;;42.22;28.80;;;28.30;67.10;;;;;;4970618;28;20191;-76
2021/04/19 09:14:10;;;;;;;41.33;28.23;;;28.90;63.90;;;;;;4969248;28;20190;-76
2021/04/19 09:16:38;;;;;;;43.33;31.17;;;29.30;61.30;;;;;;4970202;28;20215;-76
2021/04/19 09:19:04;;;;;;;40.88;29.35;;;29.70;60.10;;;;;;4968373;28;20273;-75
2021/04/19 09:21:33;;;;;;;38.40;27.23;;;28.80;59.50;;;;;;4970554;28;20187;-76
2021/04/19 09:23:59;;;;;;;42.28;30.83;;;28.00;59.40;;;;;;4971927;28;20242;-76
2021/04/19 09:26:47;;;;;;;44.13;32.10;;;26.60;63.30;;;;;;4970256;28;20187;-76
2021/04/19 09:29:26;;;;;;;44.77;30.53;;;26.00;64.80;;;;;;4969494;28;20575;-76
2021/04/19 09:31:59;;;;;;;41.13;30.13;;;26.50;63.60;;;;;;4973662;28;20202;-76
2021/04/19 09:34:44;;;;;;;44.20;31.27;;;25.10;65.60;;;;;;4972233;28;20653;-76
2021/04/19 09:37:18;;;;;;;40.53;28.13;;;26.20;66.90;;;;;;4974372;28;20306;-76
2021/04/19 09:39:44;;;;;;;37.80;27.00;;;26.40;63.50;;;;;;4977854;28;20549;-76
2021/04/19 09:42:11;;;;;;;37.03;26.10;;;26.40;63.90;;;;;;4973697;28;20665;-76
2021/04/19 09:44:54;;;;;;;37.73;27.43;;;26.60;63.50;;;;;;4973176;28;20200;-76
2021/04/19 09:47:46;;;;;;;38.27;26.20;;;27.10;63.70;;;;;;4972235;28;20201;-76
2021/04/19 09:50:13;;;;;;;39.13;26.47;;;27.10;60.80;;;;;;4974009;28;20191;-76
2021/04/19 09:52:39;;;;;;;37.03;25.53;;;27.80;59.50;;;;;;4972561;28;20223;-76
2021/04/19 09:55:05;;;;;;;35.17;24.53;;;28.00;60.80;;;;;;4974190;28;20187;-76
2021/04/19 09:57:31;;;;;;;38.22;24.85;;;27.80;59.10;;;;;;4975317;28;20195;-76
2021/04/19 09:59:57;;;;;;;34.40;23.85;;;27.60;60.00;;;;;;4974169;28;20649;-76
2021/04/19 10:02:23;;;;;;;30.97;22.47;;;26.90;62.10;;;;;;5005043;28;20191;-75
2021/04/19 10:04:51;;;;;;;28.70;20.23;;;27.00;62.00;;;;;;4971314;28;20195;-76
2021/04/19 10:07:18;;;;;;;29.58;20.02;;;26.70;59.60;;;;;;4973054;28;20273;-76
2021/04/19 10:09:45;;;;;;;29.80;21.02;;;26.30;61.80;;;;;;4973869;28;20207;-76
2021/04/19 10:12:15;;;;;;;27.30;20.52;;;27.80;60.10;;;;;;4988627;28;20187;-75
2021/04/19 10:14:41;;;;;;;28.13;20.00;;;28.00;59.30;;;;;;4974215;28;20171;-75
2021/04/19 10:17:18;;;;;;;28.75;20.45;;;28.20;59.40;;;;;;4971608;28;20401;-76
2021/04/19 10:19:44;;;;;;;28.33;17.33;;;28.00;57.50;;;;;;4972766;28;20179;-76
2021/04/19 10:22:11;;;;;;;27.83;19.52;;;28.90;56.00;;;;;;4976563;28;20333;-75
2021/04/19 10:24:49;;;;;;;26.52;18.20;;;28.40;57.50;;;;;;4973174;28;20218;-75
2021/04/19 10:27:29;;;;;;;24.88;16.05;;;27.80;58.10;;;;;;4972742;28;20270;-76
2021/04/19 10:30:07;;;;;;;24.95;16.30;;;27.80;57.70;;;;;;4970980;28;20253;-76
2021/04/19 10:32:32;;;;;;;24.10;15.45;;;28.50;56.20;;;;;;4972963;28;20593;-76
2021/04/19 10:34:58;;;;;;;24.75;15.75;;;28.80;55.80;;;;;;4973589;28;20269;-75
2021/04/19 10:37:24;;;;;;;26.13;15.73;;;28.50;56.90;;;;;;4988053;28;20710;-76
2021/04/19 10:39:50;;;;;;;24.75;15.43;;;27.30;57.30;;;;;;4971556;28;20175;-75
2021/04/19 10:42:23;;;;;;;22.33;14.23;;;26.60;57.20;;;;;;4972526;28;20571;-77
2021/04/19 10:44:50;;;;;;;27.63;15.13;;;25.60;58.00;;;;;;4972698;28;20278;-75
2021/04/19 10:47:29;;;;;;;25.37;14.87;;;26.10;59.90;;;;;;4971216;28;20349;-76
2021/04/19 10:49:55;;;;;;;23.05;14.75;;;27.50;59.00;;;;;;4970908;28;20743;-76
2021/04/19 10:52:21;;;;;;;25.13;15.25;;;28.70;57.60;;;;;;4972784;28;20191;-76
2021/04/19 10:54:47;;;;;;;23.40;14.90;;;28.70;55.10;;;;;;4972288;28;20383;-76
2021/04/19 10:57:29;;;;;;;22.05;14.55;;;28.50;55.40;;;;;;4972036;28;20189;-75
2021/04/19 10:59:57;;;;;;;23.90;13.18;;;28.30;56.00;;;;;;4970516;28;20603;-74
2021/04/19 11:02:25;;;;;;;23.23;14.10;;;28.30;54.60;;;;;;4971407;28;20645;-75
2021/04/19 11:04:51;;;;;;;24.25;12.98;;;26.90;54.60;;;;;;4968209;28;20195;-76
2021/04/19 11:07:26;;;;;;;23.75;14.40;;;27.90;55.30;;;;;;4987553;28;20218;-76
2021/04/19 11:10:21;;;;;;;19.85;12.68;;;29.00;53.80;;;;;;5004258;28;20585;-76
2021/04/19 11:13:07;;;;;;;21.20;13.68;;;28.50;54.10;;;;;;4997089;28;20643;-76
2021/04/19 11:15:41;;;;;;;23.02;13.73;;;29.20;54.00;;;;;;4968512;28;20202;-77
2021/04/19 11:18:28;;;;;;;22.95;13.23;;;29.50;52.90;;;;;;4986456;28;20182;-77
2021/04/19 11:20:56;;;;;;;23.10;13.25;;;29.30;53.10;;;;;;4970950;28;20688;-77
2021/04/19 11:23:27;;;;;;;26.02;14.27;;;27.40;54.90;;;;;;5004693;28;20183;-77
2021/04/19 11:25:54;;;;;;;26.03;15.60;;;25.00;57.70;;;;;;4974993;28;20700;-77
2021/04/19 11:28:33;;;;;;;29.17;15.50;;;23.90;60.60;;;;;;4986845;28;20213;-77
2021/04/19 11:31:19;;;;;;;25.30;14.37;;;23.40;61.40;;;;;;4974227;28;20191;-77
2021/04/19 11:33:45;;;;;;;20.33;11.67;;;22.80;61.80;;;;;;4971368;28;20277;-77
2021/04/19 11:36:11;;;;;;;30.40;12.50;;;22.60;61.80;;;;;;4971721;28;20177;-77
2021/04/19 11:38:41;;;;;;;25.57;10.90;;;23.90;60.40;;;;;;4971550;28;20205;-77
2021/04/19 11:41:10;;;;;;;24.63;11.90;;;23.60;59.50;;;;;;4955439;28;20215;-77
2021/04/19 11:43:37;;;;;;;24.00;12.53;;;23.90;58.30;;;;;;4971121;28;20190;-77
2021/04/19 11:46:12;;;;;;;25.27;14.43;;;23.20;61.30;;;;;;5002594;28;20197;-76
2021/04/19 11:48:49;;;;;;;27.60;14.53;;;22.60;63.90;;;;;;4971147;28;20226;-78
2021/04/19 11:51:17;;;;;;;24.50;14.43;;;22.40;65.00;;;;;;4972592;28;20178;-77
2021/04/19 11:53:47;;;;;;;26.93;13.57;;;21.90;67.10;;;;;;4975862;28;20553;-77
2021/04/19 11:56:13;;;;;;;22.70;13.03;;;21.60;64.60;;;;;;5003088;28;20198;-76
2021/04/19 11:58:45;;;;;;;20.27;11.23;;;21.40;68.50;;;;;;4989174;28;20185;-77
2021/04/19 12:01:19;;;;;;;20.07;10.63;;;21.40;66.80;;;;;;4970819;28;20299;-77
2021/04/19 12:03:45;;;;;;;19.73;10.63;;;21.70;64.50;;;;;;4974348;28;20210;-77
2021/04/19 12:06:12;;;;;;;20.73;11.00;;;22.30;63.40;;;;;;4971933;28;20660;-78
2021/04/19 12:08:45;;;;;;;19.37;11.50;;;22.90;63.80;;;;;;4972360;28;20230;-75
2021/04/19 12:11:20;;;;;;;21.27;11.13;;;23.70;59.30;;;;;;4971297;28;20186;-75
2021/04/19 12:13:46;;;;;;;19.33;11.00;;;24.30;61.50;;;;;;4970195;28;20196;-75
2021/04/19 12:16:12;;;;;;;22.73;11.80;;;24.30;60.30;;;;;;4987356;28;20187;-76
2021/04/19 12:18:38;;;;;;;20.67;11.00;;;24.20;60.20;;;;;;4971748;28;20190;-76
2021/04/19 12:21:05;;;;;;;22.43;11.70;;;24.10;59.00;;;;;;4987098;28;20236;-77
2021/04/19 12:23:30;;;;;;;24.47;12.20;;;23.30;60.30;;;;;;4973131;28;20194;-77
2021/04/19 12:25:58;;;;;;;21.17;12.77;;;22.70;62.70;;;;;;4971668;28;20300;-77
2021/04/19 12:28:25;;;;;;;22.90;11.57;;;22.40;63.30;;;;;;4988006;28;20209;-77
2021/04/19 12:30:52;;;;;;;20.50;11.07;;;22.00;61.70;;;;;;4969631;28;20271;-76
2021/04/19 12:33:18;;;;;;;18.97;10.90;;;21.60;64.80;;;;;;4987208;28;20249;-78
2021/04/19 12:35:44;;;;;;;20.17;10.53;;;21.50;64.80;;;;;;4958004;28;20614;-76
2021/04/19 12:38:10;;;;;;;21.03;10.47;;;21.20;66.00;;;;;;4972028;28;20987;-75
2021/04/19 12:40:37;;;;;;;17.17;9.97;;;21.10;63.50;;;;;;4986437;28;20199;-75
2021/04/19 12:43:03;;;;;;;17.83;10.53;;;21.00;62.70;;;;;;4970655;28;20207;-76
2021/04/19 12:45:32;;;;;;;19.60;10.60;;;21.50;63.40;;;;;;4971299;28;20239;-75
2021/04/19 12:48:06;;;;;;;18.33;10.27;;;21.90;64.60;;;;;;4971396;28;20200;-76